createdAt,value
2022-12-17T00:02:16.366Z,9.27
2022-12-17T00:05:01.947Z,9.20
2022-12-17T00:07:47.583Z,8.99
2022-12-17T00:10:33.024Z,8.74
2022-12-17T00:13:18.459Z,8.90
2022-12-17T00:16:09.810Z,8.96
2022-12-17T00:18:56.825Z,9.09
2022-12-17T00:21:42.548Z,9.04
2022-12-17T00:24:28.043Z,9.18
2022-12-17T00:27:13.735Z,9.17
2022-12-17T00:29:59.179Z,9.20
2022-12-17T00:32:44.487Z,9.39
2022-12-17T00:35:31.231Z,9.39
2022-12-17T00:38:16.742Z,9.28
2022-12-17T00:41:02.072Z,9.25
2022-12-17T00:43:47.607Z,9.25
2022-12-17T00:46:33.152Z,9.15
2022-12-17T00:49:19.084Z,9.14
2022-12-17T00:52:06.415Z,9.08
2022-12-17T00:54:51.490Z,9.26
2022-12-17T00:57:37.488Z,9.50
2022-12-17T01:00:24.270Z,9.49
2022-12-17T01:03:09.632Z,9.51
2022-12-17T01:05:55.613Z,9.32
2022-12-17T01:08:43.122Z,9.25
2022-12-17T01:11:28.601Z,9.04
2022-12-17T01:14:22.378Z,8.97
2022-12-17T01:17:08.112Z,8.86
2022-12-17T01:19:53.168Z,9.02
2022-12-17T01:22:41.821Z,9.13
2022-12-17T01:25:28.972Z,9.28
2022-12-17T01:28:14.176Z,9.39
2022-12-17T01:31:00.486Z,9.61
2022-12-17T01:34:00.960Z,9.47
2022-12-17T01:36:46.137Z,9.56
2022-12-17T01:39:36.958Z,9.59
2022-12-17T01:42:23.186Z,9.45
2022-12-17T01:45:11.818Z,9.54
2022-12-17T01:48:01.230Z,9.49
2022-12-17T01:50:49.904Z,9.42
2022-12-17T01:53:39.655Z,9.30
2022-12-17T01:56:26.654Z,9.15
2022-12-17T01:59:13.920Z,9.20
2022-12-17T02:01:59.919Z,9.17
2022-12-17T02:04:46.210Z,9.34
2022-12-17T02:07:43.391Z,9.38
2022-12-17T02:10:39.009Z,9.50
2022-12-17T02:13:32.967Z,9.59
2022-12-17T02:16:27.817Z,9.63
2022-12-17T02:19:18.518Z,9.60
2022-12-17T02:22:11.017Z,9.54
2022-12-17T02:25:09.095Z,9.61
2022-12-17T02:27:56.679Z,9.71
2022-12-17T02:30:42.250Z,9.78
2022-12-17T02:33:29.307Z,9.66
2022-12-17T02:36:21.140Z,9.58
2022-12-17T02:39:06.672Z,9.66
2022-12-17T02:41:59.234Z,9.71
2022-12-17T02:44:54.020Z,9.83
2022-12-17T02:47:43.067Z,9.76
2022-12-17T02:50:29.221Z,9.68
2022-12-17T02:53:19.094Z,9.52
2022-12-17T02:56:04.842Z,9.31
2022-12-17T02:58:50.329Z,9.25
2022-12-17T03:01:37.646Z,9.25
2022-12-17T03:04:23.664Z,9.16
2022-12-17T03:07:09.532Z,9.09
2022-12-17T03:09:55.370Z,9.09
2022-12-17T03:12:37.367Z,9.22
2022-12-17T03:15:24.115Z,9.35
2022-12-17T03:18:11.354Z,9.44
2022-12-17T03:20:56.596Z,9.47
2022-12-17T03:23:41.781Z,9.39
2022-12-17T03:26:27.132Z,9.37
2022-12-17T03:29:12.558Z,9.26
2022-12-17T03:31:58.048Z,9.20
2022-12-17T03:34:45.003Z,9.25
2022-12-17T03:37:30.624Z,9.19
2022-12-17T03:40:17.313Z,9.03
2022-12-17T03:43:02.440Z,9.20
2022-12-17T03:45:47.914Z,9.23
2022-12-17T03:48:34.095Z,9.01
2022-12-17T03:51:21.182Z,8.74
2022-12-17T03:54:18.431Z,8.74
2022-12-17T03:57:04.007Z,8.66
2022-12-17T03:59:49.806Z,8.78
2022-12-17T04:02:34.956Z,8.74
2022-12-17T04:05:20.660Z,8.66
2022-12-17T04:08:07.789Z,8.78
2022-12-17T04:11:08.025Z,8.87
2022-12-17T04:13:53.124Z,9.11
2022-12-17T04:16:38.903Z,9.11
2022-12-17T04:19:24.413Z,8.65
2022-12-17T04:22:10.089Z,7.41
2022-12-17T04:24:57.121Z,7.76
2022-12-17T04:27:42.611Z,7.70
2022-12-17T04:30:29.016Z,8.09
2022-12-17T04:33:14.652Z,8.46
2022-12-17T04:36:00.106Z,8.60
2022-12-17T04:38:45.401Z,8.65
2022-12-17T04:41:32.646Z,8.41
2022-12-17T04:44:18.314Z,8.42
2022-12-17T04:47:04.114Z,8.47
2022-12-17T04:49:49.382Z,8.55
2022-12-17T04:52:34.863Z,8.55
2022-12-17T04:55:20.594Z,8.37
2022-12-17T04:58:19.326Z,8.18
2022-12-17T05:01:04.960Z,8.35
2022-12-17T05:03:50.529Z,8.28
2022-12-17T05:06:35.646Z,8.37
2022-12-17T05:09:21.044Z,8.49
2022-12-17T05:12:06.303Z,8.55
2022-12-17T05:14:53.432Z,8.69
2022-12-17T05:17:38.650Z,8.87
2022-12-17T05:20:39.694Z,8.90
2022-12-17T05:23:26.896Z,8.68
2022-12-17T05:26:21.575Z,8.72
2022-12-17T05:29:12.473Z,8.69
2022-12-17T05:32:02.533Z,8.78
2022-12-17T05:34:47.941Z,8.74
2022-12-17T05:37:33.410Z,8.78
2022-12-17T05:40:18.825Z,8.86
2022-12-17T05:43:14.061Z,8.94
2022-12-17T05:46:00.255Z,8.86
2022-12-17T05:48:47.597Z,8.81
2022-12-17T05:51:38.609Z,8.85
2022-12-17T05:54:25.233Z,9.03
2022-12-17T05:57:11.312Z,9.18
2022-12-17T05:59:56.999Z,9.34
2022-12-17T06:02:42.999Z,9.45
2022-12-17T06:05:30.834Z,9.56
2022-12-17T06:08:35.961Z,9.56
2022-12-17T06:11:21.472Z,9.50
2022-12-17T06:14:07.007Z,9.40
2022-12-17T06:17:00.809Z,9.54
2022-12-17T06:19:46.267Z,9.57
2022-12-17T06:22:47.592Z,9.51
2022-12-17T06:25:33.131Z,9.42
2022-12-17T06:28:19.481Z,9.41
2022-12-17T06:31:24.775Z,9.50
2022-12-17T06:34:10.045Z,9.52
2022-12-17T06:36:55.346Z,9.56
2022-12-17T06:39:42.100Z,9.56
2022-12-17T06:42:27.702Z,9.34
2022-12-17T06:45:13.367Z,9.22
2022-12-17T06:48:01.279Z,9.26
2022-12-17T06:50:46.886Z,9.17
2022-12-17T06:53:32.365Z,9.41
2022-12-17T06:56:19.730Z,9.24
2022-12-17T06:59:05.319Z,9.27
2022-12-17T07:01:50.821Z,9.43
2022-12-17T07:04:37.169Z,9.52
2022-12-17T07:07:22.508Z,9.47
2022-12-17T07:10:12.304Z,9.14
2022-12-17T07:13:09.384Z,9.16
2022-12-17T07:15:54.996Z,9.13
2022-12-17T07:18:40.827Z,9.28
2022-12-17T07:21:26.370Z,8.94
2022-12-17T07:24:11.537Z,8.72
2022-12-17T07:26:57.071Z,8.86
2022-12-17T07:29:43.866Z,9.17
2022-12-17T07:32:29.155Z,9.06
2022-12-17T07:35:14.576Z,9.26
2022-12-17T07:37:59.874Z,9.44
2022-12-17T07:40:45.307Z,9.47
2022-12-17T07:43:31.002Z,9.55
2022-12-17T07:46:19.012Z,9.52
2022-12-17T07:49:04.675Z,9.44
2022-12-17T07:51:50.407Z,9.42
2022-12-17T07:54:35.554Z,9.47
2022-12-17T07:57:21.364Z,9.06
2022-12-17T08:00:11.953Z,8.92
2022-12-17T08:02:59.300Z,9.22
2022-12-17T08:05:45.687Z,9.42
2022-12-17T08:08:32.590Z,9.64
2022-12-17T08:11:18.282Z,9.81
2022-12-17T08:14:03.899Z,9.68
2022-12-17T08:16:49.579Z,9.46
2022-12-17T08:19:56.642Z,9.49
2022-12-17T08:22:42.013Z,9.59
2022-12-17T08:25:28.457Z,9.71
2022-12-17T08:28:48.567Z,9.67
2022-12-17T08:31:20.909Z,9.74
2022-12-17T08:34:07.734Z,9.83
2022-12-17T08:36:55.260Z,10.09
2022-12-17T08:39:42.908Z,10.24
2022-12-17T08:42:28.649Z,10.33
2022-12-17T08:45:14.196Z,10.28
2022-12-17T08:48:03.868Z,10.38
2022-12-17T08:50:50.000Z,10.25
2022-12-17T08:53:37.344Z,10.22
2022-12-17T08:56:23.774Z,9.81
2022-12-17T08:59:09.310Z,9.94
2022-12-17T09:01:55.321Z,10.15
2022-12-17T09:04:40.990Z,10.13
2022-12-17T09:07:23.045Z,10.07
2022-12-17T09:10:10.064Z,10.21
2022-12-17T09:12:57.539Z,10.27
2022-12-17T09:15:46.753Z,10.30
2022-12-17T09:18:32.444Z,10.31
2022-12-17T09:21:18.081Z,10.19
2022-12-17T09:24:03.821Z,10.11
2022-12-17T09:26:50.587Z,10.26
2022-12-17T09:29:36.275Z,10.09
2022-12-17T09:32:21.810Z,9.95
2022-12-17T09:35:12.472Z,10.16
2022-12-17T09:37:57.939Z,10.16
2022-12-17T09:40:43.971Z,9.92
2022-12-17T09:43:45.767Z,9.86
2022-12-17T09:46:39.624Z,9.44
2022-12-17T09:49:35.179Z,9.60
2022-12-17T09:52:22.841Z,9.44
2022-12-17T09:55:10.769Z,9.37
2022-12-17T09:57:57.002Z,9.42
2022-12-17T10:00:46.380Z,8.96
2022-12-17T10:03:35.009Z,9.18
2022-12-17T10:06:26.769Z,8.91
2022-12-17T10:09:15.682Z,9.13
2022-12-17T10:12:01.112Z,9.59
2022-12-17T10:14:52.130Z,9.91
2022-12-17T10:17:46.935Z,9.91
2022-12-17T10:20:40.865Z,9.77
2022-12-17T10:23:26.398Z,9.94
2022-12-17T10:26:14.565Z,9.65
2022-12-17T10:29:00.264Z,9.98
2022-12-17T10:31:49.210Z,9.82
2022-12-17T10:34:38.292Z,9.34
2022-12-17T10:37:25.257Z,9.45
2022-12-17T10:40:15.857Z,9.31
2022-12-17T10:43:05.549Z,9.89
2022-12-17T10:45:52.934Z,9.90
2022-12-17T10:48:40.613Z,10.38
2022-12-17T10:51:38.346Z,10.40
2022-12-17T10:54:36.646Z,9.57
2022-12-17T10:57:24.932Z,9.91
2022-12-17T11:00:10.500Z,10.15
2022-12-17T11:03:05.007Z,10.56
2022-12-17T11:05:59.419Z,11.03
2022-12-17T11:08:50.130Z,11.03
2022-12-17T11:11:36.169Z,10.95
2022-12-17T11:14:24.307Z,10.65
2022-12-17T11:17:13.317Z,10.81
2022-12-17T11:20:06.478Z,10.67
2022-12-17T11:23:00.912Z,10.93
2022-12-17T11:25:54.526Z,11.30
2022-12-17T11:28:41.873Z,11.02
2022-12-17T11:31:49.654Z,10.79
2022-12-17T11:34:43.418Z,10.77
2022-12-17T11:37:36.183Z,11.09
2022-12-17T11:40:35.306Z,11.28
2022-12-17T11:43:31.969Z,11.72
2022-12-17T11:46:28.081Z,11.63
2022-12-17T11:49:23.187Z,11.60
2022-12-17T11:52:19.290Z,11.66
2022-12-17T11:55:13.385Z,11.60
2022-12-17T11:58:07.966Z,11.35
2022-12-17T12:01:06.039Z,11.43
2022-12-17T12:04:02.205Z,11.46
2022-12-17T12:06:55.723Z,11.33
2022-12-17T12:09:49.485Z,11.62
2022-12-17T12:12:43.292Z,11.48
2022-12-17T12:15:42.917Z,11.29
2022-12-17T12:18:37.683Z,11.45
2022-12-17T12:21:45.423Z,11.78
2022-12-17T12:24:43.263Z,12.06
2022-12-17T12:27:42.647Z,11.87
2022-12-17T12:30:31.541Z,12.28
2022-12-17T12:33:27.129Z,12.31
2022-12-17T12:36:19.129Z,12.34
2022-12-17T12:39:07.235Z,11.94
2022-12-17T12:42:01.727Z,11.86
2022-12-17T12:44:56.300Z,11.79
2022-12-17T12:47:47.476Z,11.77
2022-12-17T12:50:39.881Z,11.92
2022-12-17T12:53:30.362Z,11.93
2022-12-17T12:56:21.457Z,12.17
2022-12-17T12:59:07.405Z,12.63
2022-12-17T13:01:55.433Z,13.24
2022-12-17T13:04:51.718Z,13.46
2022-12-17T13:07:26.380Z,13.49
2022-12-17T13:09:58.306Z,13.57
2022-12-17T13:12:31.812Z,13.00
2022-12-17T13:15:33.709Z,12.78
2022-12-17T13:18:16.672Z,12.51
2022-12-17T13:20:44.837Z,11.79
2022-12-17T13:23:26.890Z,12.03
2022-12-17T13:26:24.870Z,11.72
2022-12-17T13:29:11.965Z,11.79
2022-12-17T13:31:56.512Z,11.59
2022-12-17T13:34:31.262Z,11.38
2022-12-17T13:37:06.691Z,11.57
2022-12-17T13:39:40.941Z,11.48
2022-12-17T13:42:19.486Z,11.23
2022-12-17T13:44:48.012Z,10.91
2022-12-17T13:47:22.742Z,11.10
2022-12-17T13:50:31.748Z,11.26
2022-12-17T13:52:43.403Z,11.09
2022-12-17T13:55:19.653Z,10.75
2022-12-17T13:57:50.758Z,11.00
2022-12-17T14:00:24.478Z,11.44
2022-12-17T14:02:53.696Z,11.53
2022-12-17T14:05:26.915Z,11.37
2022-12-17T14:07:57.198Z,11.72
2022-12-17T14:10:26.203Z,11.76
2022-12-17T14:13:05.007Z,11.62
2022-12-17T14:15:33.334Z,11.59
2022-12-17T14:18:02.214Z,11.52
2022-12-17T14:20:32.470Z,11.75
2022-12-17T14:23:02.703Z,11.56
2022-12-17T14:25:36.075Z,11.65
2022-12-17T14:28:07.926Z,11.70
2022-12-17T14:31:02.647Z,11.68
2022-12-17T14:33:30.782Z,11.56
2022-12-17T14:36:00.926Z,11.67
2022-12-17T14:38:38.371Z,11.48
2022-12-17T14:41:26.526Z,11.55
2022-12-17T14:44:01.327Z,11.47
2022-12-17T14:46:31.437Z,11.65
2022-12-17T14:49:01.998Z,11.37
2022-12-17T14:51:33.333Z,11.42
2022-12-17T14:54:17.972Z,10.98
2022-12-17T14:56:47.186Z,10.89
2022-12-17T14:59:41.656Z,11.19
2022-12-17T15:02:20.956Z,11.27
2022-12-17T15:04:49.506Z,11.13
2022-12-17T15:07:25.409Z,11.22
2022-12-17T15:09:54.738Z,10.67
2022-12-17T15:12:23.706Z,11.14
2022-12-17T15:14:53.027Z,10.68
2022-12-17T15:17:21.239Z,10.82
2022-12-17T15:19:56.153Z,10.94
2022-12-17T15:22:24.798Z,11.06
2022-12-17T15:24:52.874Z,10.99
2022-12-17T15:27:21.187Z,11.14
2022-12-17T15:29:49.191Z,11.10
2022-12-17T15:32:21.031Z,10.96
2022-12-17T15:34:49.226Z,10.97
2022-12-17T15:37:23.975Z,10.74
2022-12-17T15:39:53.661Z,10.71
2022-12-17T15:42:39.261Z,10.69
2022-12-17T15:45:08.404Z,10.67
2022-12-17T15:47:37.779Z,10.80
2022-12-17T15:50:06.586Z,10.77
2022-12-17T15:52:34.597Z,10.73
2022-12-17T15:55:11.011Z,10.67
2022-12-17T15:57:39.160Z,10.61
2022-12-17T16:00:08.569Z,10.58
2022-12-17T16:02:38.212Z,10.65
2022-12-17T16:05:07.496Z,10.69
2022-12-17T16:07:37.148Z,10.66
2022-12-17T16:10:06.024Z,10.61
2022-12-17T16:12:34.459Z,10.48
2022-12-17T16:15:02.906Z,10.46
2022-12-17T16:17:30.940Z,10.30
2022-12-17T16:20:00.684Z,10.17
2022-12-17T16:22:28.983Z,10.05
2022-12-17T16:24:56.993Z,10.01
2022-12-17T16:27:25.136Z,10.02
2022-12-17T16:29:53.122Z,9.91
2022-12-17T16:32:21.357Z,9.90
2022-12-17T16:34:49.399Z,9.95
2022-12-17T16:37:18.933Z,9.86
2022-12-17T16:39:47.072Z,9.84
2022-12-17T16:42:15.210Z,9.71
2022-12-17T16:44:43.209Z,9.60
2022-12-17T16:47:11.893Z,9.58
2022-12-17T16:49:40.090Z,9.63
2022-12-17T16:52:08.177Z,9.69
2022-12-17T16:54:37.542Z,9.59
2022-12-17T16:57:05.597Z,9.62
2022-12-17T16:59:33.701Z,9.63
2022-12-17T17:02:01.730Z,9.42
2022-12-17T17:04:29.870Z,9.45
2022-12-17T17:07:00.356Z,9.38
2022-12-17T17:09:28.419Z,9.13
2022-12-17T17:11:58.841Z,9.02
2022-12-17T17:14:27.158Z,9.13
2022-12-17T17:16:55.324Z,9.21
2022-12-17T17:19:23.533Z,9.21
2022-12-17T17:21:53.102Z,9.21
2022-12-17T17:24:24.471Z,9.06
2022-12-17T17:26:53.732Z,9.21
2022-12-17T17:29:23.718Z,9.24
2022-12-17T17:34:40.660Z,9.20
2022-12-17T17:37:09.038Z,9.07
2022-12-17T17:39:37.121Z,9.06
2022-12-17T17:42:05.421Z,9.18
2022-12-17T17:44:35.201Z,9.20
2022-12-17T17:47:03.372Z,9.21
2022-12-17T17:49:31.907Z,8.99
2022-12-17T17:52:15.384Z,8.88
2022-12-17T17:54:43.464Z,8.84
2022-12-17T17:57:11.899Z,8.86
2022-12-17T17:59:41.462Z,8.91
2022-12-17T18:02:11.999Z,8.84
2022-12-17T18:04:43.495Z,8.82
2022-12-17T18:07:28.104Z,8.78
2022-12-17T18:09:57.112Z,8.65
2022-12-17T18:12:42.760Z,8.60
2022-12-17T18:15:15.190Z,8.74
2022-12-17T18:17:43.843Z,8.61
2022-12-17T18:20:12.381Z,8.48
2022-12-17T18:22:40.471Z,8.52
2022-12-17T18:25:09.102Z,8.34
2022-12-17T18:27:37.309Z,8.11
2022-12-17T18:30:06.439Z,8.16
2022-12-17T18:32:35.905Z,8.28
2022-12-17T18:35:04.919Z,8.31
2022-12-17T18:37:33.013Z,8.34
2022-12-17T18:40:01.554Z,8.23
2022-12-17T18:42:46.994Z,8.14
2022-12-17T18:45:15.248Z,8.07
2022-12-17T18:47:45.218Z,8.08
2022-12-17T18:50:14.068Z,8.08
2022-12-17T18:52:42.429Z,8.16
2022-12-17T18:55:10.644Z,8.21
2022-12-17T18:57:38.742Z,8.27
2022-12-17T19:00:08.840Z,8.17
2022-12-17T19:02:37.051Z,7.52
2022-12-17T19:05:06.820Z,7.59
2022-12-17T19:07:35.065Z,7.50
2022-12-17T19:10:03.355Z,7.62
2022-12-17T19:12:31.402Z,7.69
2022-12-17T19:14:59.584Z,7.67
2022-12-17T19:17:27.631Z,7.58
2022-12-17T19:19:55.691Z,7.63
2022-12-17T19:22:25.255Z,7.65
2022-12-17T19:24:53.848Z,7.70
2022-12-17T19:27:22.458Z,7.30
2022-12-17T19:29:50.470Z,7.31
2022-12-17T19:32:18.693Z,7.49
2022-12-17T19:34:46.700Z,7.57
2022-12-17T19:37:14.820Z,7.69
2022-12-17T19:39:44.942Z,7.77
2022-12-17T19:42:24.986Z,7.60
2022-12-17T19:44:54.005Z,7.01
2022-12-17T19:47:23.106Z,6.90
2022-12-17T19:49:51.356Z,6.97
2022-12-17T19:52:19.555Z,7.05
2022-12-17T19:54:49.884Z,7.20
2022-12-17T19:57:18.387Z,7.29
2022-12-17T19:59:46.603Z,7.26
2022-12-17T20:02:17.372Z,7.40
2022-12-17T20:04:45.631Z,7.39
2022-12-17T20:07:13.826Z,7.49
2022-12-17T20:09:44.319Z,7.45
2022-12-17T20:12:14.231Z,7.45
2022-12-17T20:14:42.317Z,7.50
2022-12-17T20:17:10.900Z,7.51
2022-12-17T20:19:39.200Z,7.49
2022-12-17T20:22:07.948Z,7.49
2022-12-17T20:24:37.491Z,7.45
2022-12-17T20:27:05.885Z,7.41
2022-12-17T20:29:35.893Z,7.31
2022-12-17T20:32:05.149Z,7.10
2022-12-17T20:34:33.303Z,6.97
2022-12-17T20:37:01.677Z,6.89
2022-12-17T20:39:30.076Z,6.96
2022-12-17T20:41:58.546Z,6.99
2022-12-17T20:44:27.379Z,6.80
2022-12-17T20:46:57.260Z,6.76
2022-12-17T20:49:25.477Z,6.78
2022-12-17T20:51:53.854Z,6.68
2022-12-17T20:54:22.555Z,6.66
2022-12-17T20:56:50.958Z,6.59
2022-12-17T20:59:20.655Z,6.09
2022-12-17T21:01:55.637Z,5.92
2022-12-17T21:04:25.750Z,6.06
2022-12-17T21:06:54.204Z,6.31
2022-12-17T21:09:25.530Z,6.42
2022-12-17T21:11:53.964Z,6.58
2022-12-17T21:14:22.187Z,6.37
2022-12-17T21:16:50.720Z,6.18
2022-12-17T21:19:20.347Z,6.07
2022-12-17T21:21:50.020Z,6.01
2022-12-17T21:24:18.522Z,5.96
2022-12-17T21:26:48.044Z,5.79
2022-12-17T21:29:17.345Z,5.82
2022-12-17T21:31:46.783Z,5.84
2022-12-17T21:34:17.173Z,5.38
2022-12-17T21:36:46.466Z,5.70
2022-12-17T21:39:17.661Z,5.83
2022-12-17T21:42:08.108Z,5.81
2022-12-17T21:44:37.136Z,5.65
2022-12-17T21:47:05.529Z,6.01
2022-12-17T21:49:33.885Z,6.19
2022-12-17T21:52:03.014Z,6.00
2022-12-17T21:54:32.595Z,5.93
2022-12-17T21:57:00.866Z,5.95
2022-12-17T21:59:29.075Z,5.81
2022-12-17T22:01:57.672Z,5.87
2022-12-17T22:04:27.421Z,5.72
2022-12-17T22:07:02.310Z,5.90
2022-12-17T22:10:15.032Z,6.10
2022-12-17T22:12:47.711Z,6.29
2022-12-17T22:15:16.142Z,6.37
2022-12-17T22:17:44.999Z,6.45
2022-12-17T22:20:13.718Z,6.29
2022-12-17T22:22:42.060Z,6.32
2022-12-17T22:25:14.975Z,6.34
2022-12-17T22:27:43.872Z,6.02
2022-12-17T22:30:33.707Z,5.54
2022-12-17T22:33:05.676Z,5.54
2022-12-17T22:39:36.821Z,5.79
2022-12-17T22:41:57.822Z,5.97
2022-12-17T22:44:35.976Z,6.03
2022-12-17T22:44:44.343Z,5.90
2022-12-17T22:47:08.321Z,5.79
2022-12-17T22:49:36.782Z,5.95
2022-12-17T22:52:05.210Z,6.16
2022-12-17T22:54:33.720Z,6.21
2022-12-17T22:57:36.135Z,6.28
2022-12-17T22:59:52.259Z,6.21
2022-12-17T23:02:20.825Z,6.14
2022-12-17T23:04:48.990Z,6.24
2022-12-17T23:07:17.078Z,5.89
2022-12-17T23:09:45.161Z,5.98
2022-12-17T23:12:32.399Z,5.93
2022-12-17T23:15:00.488Z,5.70
2022-12-17T23:17:28.650Z,5.67
2022-12-17T23:19:57.375Z,5.54
2022-12-17T23:22:25.590Z,5.58
2022-12-17T23:24:53.765Z,5.55
2022-12-17T23:27:23.394Z,5.69
2022-12-17T23:29:51.597Z,5.64
2022-12-17T23:32:19.666Z,4.85
2022-12-17T23:34:47.732Z,5.23
2022-12-17T23:37:16.035Z,5.53
2022-12-17T23:39:44.328Z,5.40
2022-12-17T23:42:13.215Z,5.30
2022-12-17T23:44:43.439Z,5.42
2022-12-17T23:47:11.660Z,5.52
2022-12-17T23:49:40.313Z,5.60
2022-12-17T23:52:08.454Z,5.72
2022-12-17T23:54:37.475Z,5.87
2022-12-17T23:57:05.765Z,5.87
2022-12-17T23:59:33.870Z,5.77
